Pagina principale
METAR-TAF:

METAR-TAF

Aeroporti :

Aeroporto di Comiso

Comiso, Italia

latitudine: 36-59-30N, longitudine: 14-36-25E, altezza: 190 m

Osservazione

Il bollettino è stato emesso 49 minuti fa, alle 16:50 UTC
Vento 8 kt da ovest/sud-ovest
Temperature 20°C
Umidità 64%
Pressione 1014 hPa
Visibilità 10 km o più
Poco nuvoloso ad un'altezza di 3000 ft

METAR: LICB 311650Z 25008KT 9999 FEW030 20/13 Q1014

Ora: 19:39 (17:39 UTC)

Previsione

Il bollettino è stato emesso 3 ore e 39 minuti fa, alle 14:00 UTC
Previsione valida dal 31 alle 15 UTC al 31 alle 24 UTC
Vento 12 kt da ovest
Visibilità 10 km o più
Nubi sparse ad un'altezza di 3000 ft
Temporaneamente
dal 31 alle 15 UTC al 31 alle 18 UTC
temporale, pioggia
Evoluzione graduale
dal 31 alle 18 UTC al 31 alle 20 UTC
Vento 5 kt da direzioni variabili

TAF: LICB 311400Z 3115/3124 27012KT 9999 SCT030 TEMPO 3115/3118 TSRA BECMG 3118/3120 VRB05KT

Osservazioni e previsioni meteorologiche di più di 4000 aeroporti (messaggi METAR e TAF).

Le stazioni disponibili sono rappresentate dai dischi gialli e rossi sulla carta.

Puntare il mouse per vedere il nome della stazione.

Clicca sopra per visualizzare le osservazioni e previsioni meteorologiche.

Per cambiare la mappa : fare clic sui pulsanti verdi con una croce nera per ingrandire, il pulsante verde con un trattino per diminuire, o sulla freccia verde per le mappe adiacenti.


METAR-TAF: